ADDS METAR Data INFO
IDs: Format: Raw Decoded Include TAF

Data at: 1147 UTC 17 Dec 2017

EDDV 171120Z 31007KT 9999 BKN012 02/M00 Q1020 BECMG BKN015

TAF EDDV 171100Z 1712/1812 28008KT 9999 BKN013
  BECMG 1712/1714 SCT013 BKN020
  BECMG 1715/1717 22005KT
  BECMG 1800/1803 15007KT
  TEMPO 1800/1807 3500 -RASN BKN007